createdAt,value
2018-06-14T00:01:51.350Z,14.10
2018-06-14T00:04:21.715Z,14.00
2018-06-14T00:06:52.088Z,14.00
2018-06-14T00:09:29.779Z,14.10
2018-06-14T00:12:02.201Z,14.00
2018-06-14T00:14:32.576Z,14.00
2018-06-14T00:17:07.063Z,14.00
2018-06-14T00:19:37.433Z,14.10
2018-06-14T00:22:07.738Z,14.10
2018-06-14T00:24:41.200Z,14.10
2018-06-14T00:27:11.567Z,14.10
2018-06-14T00:30:01.343Z,14.10
2018-06-14T00:32:31.713Z,14.10
2018-06-14T00:35:02.076Z,14.10
2018-06-14T00:37:32.475Z,14.10
2018-06-14T00:40:03.617Z,13.90
2018-06-14T00:42:33.982Z,13.90
2018-06-14T00:45:04.376Z,13.90
2018-06-14T00:50:19.446Z,13.90
2018-06-14T00:52:49.815Z,13.70
2018-06-14T00:55:20.178Z,13.70
2018-06-14T00:58:09.946Z,13.60
2018-06-14T01:00:47.483Z,13.70
2018-06-14T01:03:17.816Z,13.80
2018-06-14T01:05:48.953Z,13.90
2018-06-14T01:08:19.264Z,13.90
2018-06-14T01:10:49.594Z,14.00
2018-06-14T01:13:19.966Z,13.90
2018-06-14T01:15:50.329Z,13.70
2018-06-14T01:18:20.999Z,13.70
2018-06-14T01:20:52.132Z,13.70
2018-06-14T01:23:22.494Z,13.70
2018-06-14T01:25:53.908Z,13.80
2018-06-14T01:28:25.299Z,13.90
2018-06-14T01:30:55.673Z,13.80
2018-06-14T01:33:26.067Z,13.80
2018-06-14T01:36:03.742Z,13.80
2018-06-14T01:38:34.146Z,13.70
2018-06-14T01:41:04.513Z,13.60
2018-06-14T01:43:39.009Z,13.70
2018-06-14T01:46:09.378Z,13.70
2018-06-14T01:48:39.959Z,13.80
2018-06-14T01:51:11.105Z,13.70
2018-06-14T01:53:42.245Z,13.70
2018-06-14T01:56:13.595Z,13.70
2018-06-14T01:58:44.996Z,13.70
2018-06-14T02:01:15.370Z,13.70
2018-06-14T02:03:46.505Z,13.80
2018-06-14T02:06:17.672Z,13.70
2018-06-14T02:08:48.040Z,13.70
2018-06-14T02:11:18.406Z,13.80
2018-06-14T02:13:49.563Z,13.80
2018-06-14T02:16:19.933Z,13.90
2018-06-14T02:18:50.306Z,13.80
2018-06-14T02:21:21.459Z,13.80
2018-06-14T02:23:51.829Z,13.80
2018-06-14T02:26:42.604Z,13.90
2018-06-14T02:29:12.972Z,13.70
2018-06-14T02:31:44.360Z,13.30
2018-06-14T02:34:15.511Z,13.60
2018-06-14T02:36:46.636Z,13.80
2018-06-14T02:39:18.481Z,13.60
2018-06-14T02:41:50.916Z,13.50
2018-06-14T02:44:25.379Z,13.40
2018-06-14T02:46:55.750Z,13.30
2018-06-14T02:49:26.149Z,13.40
2018-06-14T02:51:56.513Z,13.50
2018-06-14T02:54:26.884Z,13.40
2018-06-14T02:56:57.285Z,13.40
2018-06-14T02:59:34.961Z,13.60
2018-06-14T03:02:05.359Z,13.50
2018-06-14T03:04:36.493Z,13.70
2018-06-14T03:07:07.567Z,13.60
2018-06-14T03:09:37.968Z,13.60
2018-06-14T03:12:09.092Z,13.40
2018-06-14T03:14:39.459Z,13.40
2018-06-14T03:17:09.788Z,13.30
2018-06-14T03:19:40.131Z,13.40
2018-06-14T03:22:10.499Z,13.20
2018-06-14T03:24:40.896Z,13.10
2018-06-14T03:27:11.269Z,13.00
2018-06-14T03:29:42.408Z,13.20
2018-06-14T03:32:13.568Z,13.40
2018-06-14T03:34:43.932Z,13.30
2018-06-14T03:37:34.718Z,13.50
2018-06-14T03:40:06.112Z,13.40
2018-06-14T03:42:36.471Z,13.30
2018-06-14T03:45:06.865Z,13.10
2018-06-14T03:47:37.227Z,13.10
2018-06-14T03:50:07.601Z,13.20
2018-06-14T03:52:58.395Z,13.10
2018-06-14T03:55:48.137Z,13.00
2018-06-14T03:58:19.604Z,13.00
2018-06-14T04:00:49.929Z,13.10
2018-06-14T04:03:20.233Z,13.00
2018-06-14T04:05:51.391Z,13.00
2018-06-14T04:08:21.763Z,13.00
2018-06-14T04:10:52.129Z,12.90
2018-06-14T04:13:23.284Z,12.90
2018-06-14T04:15:53.651Z,12.90
2018-06-14T04:18:24.025Z,13.00
2018-06-14T04:20:55.129Z,12.90
2018-06-14T04:23:25.506Z,13.00
2018-06-14T04:25:55.829Z,13.10
2018-06-14T04:28:26.979Z,13.00
2018-06-14T04:30:57.347Z,13.00
2018-06-14T04:33:27.723Z,13.10
2018-06-14T04:35:58.056Z,13.10
2018-06-14T04:38:28.417Z,13.10
2018-06-14T04:40:59.806Z,13.20
2018-06-14T04:43:31.986Z,13.30
2018-06-14T04:46:03.059Z,13.30
2018-06-14T04:48:37.525Z,13.30
2018-06-14T04:51:07.912Z,13.40
2018-06-14T04:53:44.421Z,13.40
2018-06-14T04:59:03.144Z,13.40
2018-06-14T05:01:33.523Z,13.50
2018-06-14T05:04:03.884Z,13.40
2018-06-14T05:06:34.440Z,13.40
2018-06-14T05:09:24.216Z,13.60
2018-06-14T05:11:54.818Z,13.60
2018-06-14T05:14:25.887Z,13.50
2018-06-14T05:16:56.464Z,13.50
2018-06-14T05:19:27.611Z,13.60
2018-06-14T05:21:57.980Z,13.60
2018-06-14T05:24:28.373Z,13.70
2018-06-14T05:26:58.749Z,13.70
2018-06-14T05:29:30.131Z,13.80
2018-06-14T05:32:00.536Z,13.80
2018-06-14T05:34:50.271Z,13.90
2018-06-14T05:37:20.900Z,13.90
2018-06-14T05:39:52.040Z,14.10
2018-06-14T05:42:23.239Z,14.30
2018-06-14T05:44:54.339Z,14.20
2018-06-14T05:47:25.471Z,14.40
2018-06-14T05:49:56.605Z,14.40
2018-06-14T05:52:26.993Z,14.40
2018-06-14T05:55:18.724Z,14.50
2018-06-14T05:58:08.479Z,14.80
2018-06-14T06:00:38.860Z,14.90
2018-06-14T06:03:09.229Z,15.00
2018-06-14T06:05:39.564Z,15.00
2018-06-14T06:08:10.701Z,15.20
2018-06-14T06:10:41.080Z,15.10
2018-06-14T06:13:11.420Z,15.10
2018-06-14T06:15:42.554Z,15.10
2018-06-14T06:18:13.108Z,15.10
2018-06-14T06:20:43.500Z,15.20
2018-06-14T06:23:13.819Z,15.20
2018-06-14T06:25:44.127Z,15.40
2018-06-14T06:28:18.614Z,15.30
2018-06-14T06:30:48.986Z,15.60
2018-06-14T06:33:19.498Z,15.80
2018-06-14T06:35:50.506Z,16.40
2018-06-14T06:38:20.886Z,16.40
2018-06-14T06:40:51.261Z,16.60
2018-06-14T06:43:21.665Z,16.80
2018-06-14T06:45:51.973Z,16.90
2018-06-14T06:48:22.292Z,16.90
2018-06-14T06:50:52.701Z,17.10
2018-06-14T06:53:44.429Z,17.10
2018-06-14T06:56:14.823Z,17.10
2018-06-14T06:58:45.254Z,16.70
2018-06-14T07:01:15.563Z,16.30
2018-06-14T07:03:46.723Z,16.10
2018-06-14T07:06:17.260Z,16.10
2018-06-14T07:08:47.473Z,16.20
2018-06-14T07:11:17.875Z,16.10
2018-06-14T07:13:48.432Z,16.10
2018-06-14T07:16:18.800Z,16.00
2018-06-14T07:18:49.201Z,16.00
2018-06-14T07:21:26.721Z,16.10
2018-06-14T07:23:57.242Z,16.10
2018-06-14T07:26:27.616Z,16.10
2018-06-14T07:28:58.751Z,16.10
2018-06-14T07:31:29.147Z,16.10
2018-06-14T07:33:59.515Z,16.00
2018-06-14T07:36:29.882Z,16.00
2018-06-14T07:39:04.377Z,16.10
2018-06-14T07:41:34.744Z,16.30
2018-06-14T07:44:05.120Z,16.30
2018-06-14T07:46:35.519Z,16.30
2018-06-14T07:49:05.828Z,16.40
2018-06-14T07:51:36.202Z,16.40
2018-06-14T07:54:06.662Z,16.40
2018-06-14T07:56:36.993Z,16.30
2018-06-14T07:59:12.476Z,16.40
2018-06-14T08:01:42.880Z,16.50
2018-06-14T08:04:13.248Z,16.50
2018-06-14T08:06:43.617Z,16.60
2018-06-14T08:09:14.021Z,16.60
2018-06-14T08:11:44.420Z,16.60
2018-06-14T08:14:15.559Z,16.70
2018-06-14T08:16:46.724Z,16.70
2018-06-14T08:19:17.096Z,16.70
2018-06-14T08:21:47.467Z,16.80
2018-06-14T08:24:18.653Z,16.90
2018-06-14T08:26:56.341Z,16.90
2018-06-14T08:29:28.778Z,17.00
2018-06-14T08:31:59.910Z,17.00
2018-06-14T08:34:31.053Z,17.00
2018-06-14T08:37:03.492Z,17.00
2018-06-14T08:39:34.883Z,17.10
2018-06-14T08:42:05.256Z,17.10
2018-06-14T08:44:37.691Z,17.10
2018-06-14T08:47:08.835Z,17.00
2018-06-14T08:49:39.969Z,17.00
2018-06-14T08:52:11.125Z,17.00
2018-06-14T08:54:42.269Z,17.00
2018-06-14T08:57:12.658Z,17.00
2018-06-14T08:59:43.046Z,17.00
2018-06-14T09:02:13.424Z,17.20
2018-06-14T09:04:43.797Z,17.20
2018-06-14T09:07:14.192Z,17.20
2018-06-14T09:12:33.068Z,17.40
2018-06-14T09:15:04.200Z,17.50
2018-06-14T09:17:34.575Z,17.40
2018-06-14T09:20:04.950Z,17.70
2018-06-14T09:22:35.319Z,17.70
2018-06-14T09:25:05.689Z,17.70
2018-06-14T09:27:36.082Z,17.70
2018-06-14T09:30:06.454Z,17.70
2018-06-14T09:32:37.030Z,17.70
2018-06-14T09:35:07.409Z,17.80
2018-06-14T09:37:37.972Z,18.00
2018-06-14T09:40:08.342Z,18.20
2018-06-14T09:43:01.037Z,18.30
2018-06-14T09:45:32.254Z,18.10
2018-06-14T09:48:02.621Z,18.00
2018-06-14T09:50:33.016Z,18.00
2018-06-14T09:53:04.403Z,18.00
2018-06-14T09:55:35.508Z,18.10
2018-06-14T09:58:07.571Z,18.40
2018-06-14T10:00:37.948Z,18.60
2018-06-14T10:03:08.328Z,18.50
2018-06-14T10:05:38.724Z,18.60
2018-06-14T10:08:09.103Z,18.60
2018-06-14T10:10:40.245Z,18.70
2018-06-14T10:13:10.640Z,18.70
2018-06-14T10:15:41.012Z,18.80
2018-06-14T10:18:11.377Z,18.80
2018-06-14T10:20:42.811Z,18.70
2018-06-14T10:23:17.216Z,18.60
2018-06-14T10:25:47.619Z,18.60
2018-06-14T10:28:18.948Z,18.40
2018-06-14T10:30:49.323Z,18.40
2018-06-14T10:33:19.715Z,18.50
2018-06-14T10:35:50.857Z,18.40
2018-06-14T10:38:21.230Z,18.40
2018-06-14T10:40:52.653Z,18.60
2018-06-14T10:43:23.038Z,18.60
2018-06-14T10:45:53.411Z,18.50
2018-06-14T10:48:23.814Z,18.60
2018-06-14T10:50:54.185Z,18.50
2018-06-14T10:53:26.602Z,18.70
2018-06-14T10:55:57.012Z,18.80
2018-06-14T10:58:27.395Z,18.80
2018-06-14T11:00:57.769Z,18.90
2018-06-14T11:03:28.356Z,19.00
2018-06-14T11:05:58.918Z,19.40
2018-06-14T11:08:31.327Z,19.40
2018-06-14T11:11:02.437Z,19.10
2018-06-14T11:13:54.209Z,19.10
2018-06-14T11:16:25.376Z,19.30
2018-06-14T11:18:55.743Z,19.30
2018-06-14T11:21:26.120Z,19.40
2018-06-14T11:23:57.276Z,19.20
2018-06-14T11:26:27.638Z,19.20
2018-06-14T11:28:57.940Z,19.20
2018-06-14T11:31:34.472Z,19.20
2018-06-14T11:34:05.809Z,19.10
2018-06-14T11:36:36.177Z,19.10
2018-06-14T11:39:06.765Z,19.20
2018-06-14T11:41:37.904Z,19.10
2018-06-14T11:44:08.280Z,19.10
2018-06-14T11:46:40.720Z,19.00
2018-06-14T11:49:11.854Z,18.80
2018-06-14T11:51:43.003Z,18.80
2018-06-14T11:54:13.426Z,18.70
2018-06-14T11:56:43.788Z,18.70
2018-06-14T11:59:14.148Z,18.60
2018-06-14T12:01:44.510Z,18.60
2018-06-14T12:04:14.867Z,18.50
2018-06-14T12:06:45.244Z,18.50
2018-06-14T12:09:15.652Z,18.40
2018-06-14T12:11:46.029Z,18.40
2018-06-14T12:14:16.410Z,18.20
2018-06-14T12:16:47.000Z,18.20
2018-06-14T12:19:19.421Z,18.10
2018-06-14T12:21:49.802Z,18.10
2018-06-14T12:24:20.200Z,18.20
2018-06-14T12:26:51.339Z,18.40
2018-06-14T12:29:22.728Z,18.40
2018-06-14T12:31:53.125Z,18.50
2018-06-14T12:34:23.501Z,18.60
2018-06-14T12:36:54.897Z,18.70
2018-06-14T12:39:26.012Z,19.10
2018-06-14T12:41:57.416Z,19.00
2018-06-14T12:44:27.783Z,19.10
2018-06-14T12:46:58.188Z,19.00
2018-06-14T12:49:34.709Z,19.00
2018-06-14T12:52:05.110Z,19.10
2018-06-14T12:54:35.554Z,19.00
2018-06-14T12:57:05.857Z,19.10
2018-06-14T12:59:36.266Z,19.20
2018-06-14T13:02:14.149Z,19.10
2018-06-14T13:04:44.494Z,19.20
2018-06-14T13:07:14.857Z,19.20
2018-06-14T13:09:45.226Z,19.20
2018-06-14T13:12:15.633Z,19.20
2018-06-14T13:14:46.779Z,19.30
2018-06-14T13:17:17.917Z,19.30
2018-06-14T13:19:49.022Z,19.50
2018-06-14T13:22:19.385Z,19.50
2018-06-14T13:24:50.520Z,19.40
2018-06-14T13:30:29.964Z,19.40
2018-06-14T13:33:00.348Z,19.60
2018-06-14T13:35:30.732Z,19.50
2018-06-14T13:38:01.097Z,19.60
2018-06-14T13:40:31.491Z,19.60
2018-06-14T13:43:02.635Z,19.90
2018-06-14T13:45:33.771Z,20.00
2018-06-14T13:48:04.171Z,20.00
2018-06-14T13:50:34.554Z,20.20
2018-06-14T13:53:04.916Z,20.50
2018-06-14T13:55:35.463Z,20.40
2018-06-14T13:58:05.703Z,20.40
2018-06-14T14:00:36.077Z,20.90
2018-06-14T14:03:06.476Z,21.10
2018-06-14T14:05:37.599Z,20.60
2018-06-14T14:08:07.965Z,20.60
2018-06-14T14:10:38.373Z,20.40
2018-06-14T14:13:08.741Z,20.30
2018-06-14T14:15:45.255Z,20.20
2018-06-14T14:18:16.387Z,20.10
2018-06-14T14:20:46.755Z,20.10
2018-06-14T14:23:17.156Z,19.90
2018-06-14T14:25:48.289Z,20.00
2018-06-14T14:28:18.656Z,19.90
2018-06-14T14:30:48.993Z,20.00
2018-06-14T14:33:21.415Z,20.10
2018-06-14T14:35:51.781Z,20.00
2018-06-14T14:38:22.172Z,19.90
2018-06-14T14:40:53.309Z,19.70
2018-06-14T14:43:23.672Z,19.70
2018-06-14T14:45:54.072Z,19.70
2018-06-14T14:48:24.433Z,19.80
2018-06-14T14:50:54.781Z,19.80
2018-06-14T14:53:30.293Z,19.80
2018-06-14T14:56:00.659Z,19.90
2018-06-14T14:58:31.093Z,19.80
2018-06-14T15:01:01.424Z,19.80
2018-06-14T15:03:31.788Z,19.90
2018-06-14T15:06:02.162Z,19.90
2018-06-14T15:08:33.572Z,20.00
2018-06-14T15:11:03.940Z,20.00
2018-06-14T15:13:34.297Z,20.10
2018-06-14T15:16:05.467Z,20.10
2018-06-14T15:18:35.832Z,20.10
2018-06-14T15:21:06.210Z,20.10
2018-06-14T15:23:37.367Z,20.20
2018-06-14T15:26:07.747Z,20.20
2018-06-14T15:28:38.113Z,20.20
2018-06-14T15:31:11.469Z,20.20
2018-06-14T15:33:41.824Z,20.20
2018-06-14T15:36:12.148Z,20.10
2018-06-14T15:38:45.030Z,20.00
2018-06-14T15:41:18.912Z,20.00
2018-06-14T15:43:52.117Z,20.00
2018-06-14T15:46:22.483Z,20.00
2018-06-14T15:48:53.934Z,19.90
2018-06-14T15:51:24.279Z,19.90
2018-06-14T15:54:14.067Z,19.80
2018-06-14T15:56:45.196Z,19.70
2018-06-14T15:59:17.617Z,19.70
2018-06-14T16:01:48.763Z,19.60
2018-06-14T16:04:19.156Z,19.60
2018-06-14T16:06:56.422Z,19.60
2018-06-14T16:09:26.820Z,19.60
2018-06-14T16:11:57.895Z,19.30
2018-06-14T16:14:32.369Z,19.30
2018-06-14T16:17:02.763Z,19.30
2018-06-14T16:19:35.178Z,19.30
2018-06-14T16:22:06.323Z,19.30
2018-06-14T16:24:36.728Z,19.20
2018-06-14T16:27:07.100Z,19.20
2018-06-14T16:29:37.479Z,19.20
2018-06-14T16:32:10.992Z,19.30
2018-06-14T16:34:43.056Z,19.50
2018-06-14T16:37:13.436Z,19.50
2018-06-14T16:39:43.833Z,19.40
2018-06-14T16:42:15.159Z,19.30
2018-06-14T16:44:45.546Z,19.30
2018-06-14T16:47:23.254Z,19.20
2018-06-14T16:50:15.637Z,19.10
2018-06-14T16:52:46.804Z,19.10
2018-06-14T16:58:07.145Z,19.00
2018-06-14T17:00:44.844Z,19.00
2018-06-14T17:03:24.457Z,19.00
2018-06-14T17:05:54.836Z,19.00
2018-06-14T17:08:25.209Z,19.00
2018-06-14T17:11:03.418Z,18.90
2018-06-14T17:13:36.256Z,18.90
2018-06-14T17:16:06.633Z,18.80
2018-06-14T17:18:37.024Z,18.80
2018-06-14T17:21:07.395Z,18.70
2018-06-14T17:23:40.635Z,18.80
2018-06-14T17:26:10.972Z,18.90
2018-06-14T17:28:41.350Z,18.90
2018-06-14T17:31:15.808Z,18.90
2018-06-14T17:33:47.172Z,18.80
2018-06-14T17:36:20.911Z,18.60
2018-06-14T17:38:52.048Z,18.50
2018-06-14T17:41:30.185Z,18.50
2018-06-14T17:44:00.409Z,18.60
2018-06-14T17:46:32.815Z,18.40
2018-06-14T17:49:03.141Z,18.50
2018-06-14T17:51:33.454Z,18.30
2018-06-14T17:54:06.322Z,18.20
2018-06-14T17:56:39.724Z,18.10
2018-06-14T17:59:10.097Z,18.20
2018-06-14T18:01:41.241Z,18.10
2018-06-14T18:04:14.108Z,18.10
2018-06-14T18:06:44.489Z,18.10
2018-06-14T18:09:22.377Z,18.20
2018-06-14T18:11:52.752Z,18.20
2018-06-14T18:14:23.121Z,18.10
2018-06-14T18:16:56.149Z,18.10
2018-06-14T18:19:27.214Z,18.10
2018-06-14T18:22:00.406Z,18.10
2018-06-14T18:24:30.803Z,18.10
2018-06-14T18:27:06.147Z,18.20
2018-06-14T18:29:36.546Z,18.10
2018-06-14T18:32:10.181Z,18.20
2018-06-14T18:34:43.247Z,18.10
2018-06-14T18:37:13.617Z,18.20
2018-06-14T18:39:44.016Z,18.20
2018-06-14T18:42:17.447Z,18.20
2018-06-14T18:44:47.828Z,18.10
2018-06-14T18:47:23.338Z,18.10
2018-06-14T18:49:54.479Z,18.10
2018-06-14T18:52:25.552Z,18.00
2018-06-14T18:54:58.924Z,18.00
2018-06-14T18:57:31.208Z,18.00
2018-06-14T19:00:01.583Z,18.00
2018-06-14T19:02:31.979Z,18.00
2018-06-14T19:05:02.359Z,18.00
2018-06-14T19:07:33.500Z,17.90
2018-06-14T19:10:03.891Z,17.90
2018-06-14T19:12:57.424Z,18.00
2018-06-14T19:15:28.588Z,17.70
2018-06-14T19:18:02.985Z,17.70
2018-06-14T19:23:22.571Z,17.90
2018-06-14T19:25:53.714Z,17.90
2018-06-14T19:28:27.542Z,17.90
2018-06-14T19:30:57.862Z,17.90
2018-06-14T19:33:33.777Z,18.00
2018-06-14T19:36:07.399Z,18.00
2018-06-14T19:38:38.423Z,17.80
2018-06-14T19:41:09.566Z,17.80
2018-06-14T19:43:43.036Z,17.80
2018-06-14T19:46:36.326Z,17.90
2018-06-14T19:49:06.692Z,17.90
2018-06-14T19:51:38.852Z,17.80
2018-06-14T19:54:10.025Z,17.80
2018-06-14T19:56:42.447Z,17.80
2018-06-14T19:59:12.825Z,17.80
2018-06-14T20:01:45.276Z,17.70
2018-06-14T20:04:18.370Z,17.60
2018-06-14T20:06:48.742Z,17.60
2018-06-14T20:09:19.141Z,17.60
2018-06-14T20:11:49.513Z,17.50
2018-06-14T20:14:19.892Z,17.60
2018-06-14T20:16:50.225Z,17.50
2018-06-14T20:19:39.698Z,17.30
2018-06-14T20:22:16.238Z,17.30
2018-06-14T20:24:52.715Z,17.40
2018-06-14T20:27:23.118Z,17.40
2018-06-14T20:29:57.027Z,17.30
2018-06-14T20:32:28.171Z,17.30
2018-06-14T20:35:02.372Z,17.20
2018-06-14T20:37:33.664Z,17.20
2018-06-14T20:40:04.036Z,17.20
2018-06-14T20:42:34.432Z,17.20
2018-06-14T20:45:04.798Z,17.20
2018-06-14T20:47:35.188Z,17.10
2018-06-14T20:50:08.397Z,17.10
2018-06-14T20:53:02.091Z,17.20
2018-06-14T20:55:34.538Z,17.20
2018-06-14T20:58:06.913Z,17.20
2018-06-14T21:00:40.376Z,17.20
2018-06-14T21:03:13.222Z,17.10
2018-06-14T21:05:43.605Z,17.10
2018-06-14T21:08:18.755Z,17.10
2018-06-14T21:10:56.440Z,17.10
2018-06-14T21:13:28.894Z,17.00
2018-06-14T21:15:59.272Z,17.00
2018-06-14T21:18:29.645Z,17.00
2018-06-14T21:20:59.983Z,17.00
2018-06-14T21:23:30.361Z,17.00
2018-06-14T21:26:00.733Z,17.00
2018-06-14T21:28:31.080Z,17.00
2018-06-14T21:31:20.558Z,16.90
2018-06-14T21:33:52.997Z,16.90
2018-06-14T21:36:23.373Z,16.90
2018-06-14T21:38:53.748Z,17.00
2018-06-14T21:41:24.147Z,16.90
2018-06-14T21:43:56.560Z,17.00
2018-06-14T21:46:26.937Z,17.00
2018-06-14T21:48:57.334Z,17.00
2018-06-14T21:51:27.651Z,17.10
2018-06-14T21:53:58.017Z,17.10
2018-06-14T21:56:28.418Z,17.00
2018-06-14T21:59:05.944Z,17.00
2018-06-14T22:01:37.359Z,16.90
2018-06-14T22:04:15.834Z,16.90
2018-06-14T22:09:39.596Z,16.90
2018-06-14T22:12:09.992Z,16.90
2018-06-14T22:14:42.412Z,16.90
2018-06-14T22:17:12.718Z,17.00
2018-06-14T22:19:43.118Z,16.90
2018-06-14T22:22:17.580Z,16.90
2018-06-14T22:24:47.921Z,16.90
2018-06-14T22:27:18.997Z,17.00
2018-06-14T22:29:49.371Z,17.00
2018-06-14T22:32:19.777Z,16.80
2018-06-14T22:35:07.281Z,16.70
2018-06-14T22:37:39.727Z,16.70
2018-06-14T22:40:10.105Z,16.60
2018-06-14T22:42:41.511Z,16.60
2018-06-14T22:45:11.915Z,16.60
2018-06-14T22:47:43.046Z,16.60
2018-06-14T22:50:13.417Z,16.60
2018-06-14T22:52:43.821Z,16.60
2018-06-14T22:55:14.952Z,16.60
2018-06-14T22:57:45.266Z,16.50
2018-06-14T23:00:15.659Z,16.50
2018-06-14T23:03:08.150Z,16.50
2018-06-14T23:05:39.324Z,16.70
2018-06-14T23:08:10.748Z,16.70
2018-06-14T23:11:16.986Z,16.70
2018-06-14T23:13:47.356Z,16.50
2018-06-14T23:16:17.732Z,16.50
2018-06-14T23:18:48.124Z,16.60
2018-06-14T23:21:18.505Z,16.50
2018-06-14T23:23:48.872Z,16.50
2018-06-14T23:26:19.287Z,16.40
2018-06-14T23:28:50.427Z,16.50
2018-06-14T23:31:21.500Z,16.40
2018-06-14T23:33:51.904Z,16.40
2018-06-14T23:36:24.327Z,16.40
2018-06-14T23:38:54.700Z,16.30
2018-06-14T23:41:25.288Z,16.50
2018-06-14T23:43:55.663Z,16.30
2018-06-14T23:46:26.036Z,16.30
2018-06-14T23:48:56.434Z,16.30
2018-06-14T23:51:26.800Z,16.20
2018-06-14T23:53:57.168Z,16.10
2018-06-14T23:56:27.571Z,16.20
2018-06-14T23:58:59.989Z,16.20
